sensor_id;sensor_type;location;lat;lon;timestamp;temperature;humidity
60313;DHT22;46158;52.850;6.970;2022-09-12T00:00:28;19.60;82.20
60313;DHT22;46158;52.850;6.970;2022-09-12T00:02:56;19.60;82.20
60313;DHT22;46158;52.850;6.970;2022-09-12T00:05:22;19.60;82.20
60313;DHT22;46158;52.850;6.970;2022-09-12T00:07:48;19.60;82.20
60313;DHT22;46158;52.850;6.970;2022-09-12T00:10:14;19.60;82.20
60313;DHT22;46158;52.850;6.970;2022-09-12T00:12:40;19.60;82.20
60313;DHT22;46158;52.850;6.970;2022-09-12T00:15:06;19.60;82.30
60313;DHT22;46158;52.850;6.970;2022-09-12T00:17:37;19.60;82.40
60313;DHT22;46158;52.850;6.970;2022-09-12T00:20:03;19.60;82.30
60313;DHT22;46158;52.850;6.970;2022-09-12T00:22:30;19.50;82.10
60313;DHT22;46158;52.850;6.970;2022-09-12T00:24:55;19.50;82.40
60313;DHT22;46158;52.850;6.970;2022-09-12T00:27:21;19.50;82.40
60313;DHT22;46158;52.850;6.970;2022-09-12T00:29:46;19.50;82.40
60313;DHT22;46158;52.850;6.970;2022-09-12T00:32:12;19.50;82.40
60313;DHT22;46158;52.850;6.970;2022-09-12T00:34:38;19.50;82.40
60313;DHT22;46158;52.850;6.970;2022-09-12T00:37:03;19.50;82.40
60313;DHT22;46158;52.850;6.970;2022-09-12T00:39:29;19.50;82.40
60313;DHT22;46158;52.850;6.970;2022-09-12T00:41:55;19.50;82.40
60313;DHT22;46158;52.850;6.970;2022-09-12T00:46:49;19.50;82.50
60313;DHT22;46158;52.850;6.970;2022-09-12T00:51:47;19.50;82.30
60313;DHT22;46158;52.850;6.970;2022-09-12T00:54:18;19.40;82.50
60313;DHT22;46158;52.850;6.970;2022-09-12T00:56:46;19.50;82.50
60313;DHT22;46158;52.850;6.970;2022-09-12T00:59:26;19.40;82.50
60313;DHT22;46158;52.850;6.970;2022-09-12T01:01:53;19.40;82.40
60313;DHT22;46158;52.850;6.970;2022-09-12T01:04:23;19.40;82.50
60313;DHT22;46158;52.850;6.970;2022-09-12T01:06:51;19.40;82.50
60313;DHT22;46158;52.850;6.970;2022-09-12T01:09:20;19.40;82.60
60313;DHT22;46158;52.850;6.970;2022-09-12T01:11:47;19.40;82.50
60313;DHT22;46158;52.850;6.970;2022-09-12T01:14:14;19.40;82.50
60313;DHT22;46158;52.850;6.970;2022-09-12T01:16:41;19.40;82.50
60313;DHT22;46158;52.850;6.970;2022-09-12T01:34:09;19.40;82.50
60313;DHT22;46158;52.850;6.970;2022-09-12T01:42:18;19.40;82.60
60313;DHT22;46158;52.850;6.970;2022-09-12T01:45:12;19.30;82.50
60313;DHT22;46158;52.850;6.970;2022-09-12T01:50:20;19.30;82.50
60313;DHT22;46158;52.850;6.970;2022-09-12T01:52:53;19.30;82.60
60313;DHT22;46158;52.850;6.970;2022-09-12T01:55:30;19.30;82.50
60313;DHT22;46158;52.850;6.970;2022-09-12T01:58:05;19.30;82.50
60313;DHT22;46158;52.850;6.970;2022-09-12T02:00:46;19.30;82.60
60313;DHT22;46158;52.850;6.970;2022-09-12T02:03:30;19.30;82.50
60313;DHT22;46158;52.850;6.970;2022-09-12T02:06:06;19.30;82.50
60313;DHT22;46158;52.850;6.970;2022-09-12T02:08:39;19.30;82.60
60313;DHT22;46158;52.850;6.970;2022-09-12T02:11:09;19.20;82.50
60313;DHT22;46158;52.850;6.970;2022-09-12T02:13:46;19.20;82.60
60313;DHT22;46158;52.850;6.970;2022-09-12T02:16:19;19.20;82.60
60313;DHT22;46158;52.850;6.970;2022-09-12T02:18:52;19.20;82.60
60313;DHT22;46158;52.850;6.970;2022-09-12T02:21:21;19.20;82.60
60313;DHT22;46158;52.850;6.970;2022-09-12T02:23:54;19.20;82.60
60313;DHT22;46158;52.850;6.970;2022-09-12T02:26:28;19.20;82.60
60313;DHT22;46158;52.850;6.970;2022-09-12T02:28:54;19.20;82.60
60313;DHT22;46158;52.850;6.970;2022-09-12T02:31:30;19.20;83.30
60313;DHT22;46158;52.850;6.970;2022-09-12T02:34:25;19.20;83.30
60313;DHT22;46158;52.850;6.970;2022-09-12T02:39:37;19.20;82.50
60313;DHT22;46158;52.850;6.970;2022-09-12T02:42:03;19.20;82.70
60313;DHT22;46158;52.850;6.970;2022-09-12T02:44:31;19.20;82.70
60313;DHT22;46158;52.850;6.970;2022-09-12T02:47:03;19.10;82.60
60313;DHT22;46158;52.850;6.970;2022-09-12T02:49:30;19.20;82.70
60313;DHT22;46158;52.850;6.970;2022-09-12T02:51:56;19.20;82.70
60313;DHT22;46158;52.850;6.970;2022-09-12T02:54:22;19.10;82.60
60313;DHT22;46158;52.850;6.970;2022-09-12T02:56:49;19.10;83.30
60313;DHT22;46158;52.850;6.970;2022-09-12T02:59:18;19.10;82.60
60313;DHT22;46158;52.850;6.970;2022-09-12T03:07:10;19.10;82.70
60313;DHT22;46158;52.850;6.970;2022-09-12T03:09:52;19.10;82.50
60313;DHT22;46158;52.850;6.970;2022-09-12T03:12:55;19.10;82.60
60313;DHT22;46158;52.850;6.970;2022-09-12T03:20:57;19.10;82.70
60313;DHT22;46158;52.850;6.970;2022-09-12T03:26:36;19.10;82.60
60313;DHT22;46158;52.850;6.970;2022-09-12T03:29:06;19.00;82.70
60313;DHT22;46158;52.850;6.970;2022-09-12T03:31:32;19.10;82.70
60313;DHT22;46158;52.850;6.970;2022-09-12T03:33:58;19.00;82.70
60313;DHT22;46158;52.850;6.970;2022-09-12T03:36:27;19.00;82.70
60313;DHT22;46158;52.850;6.970;2022-09-12T03:38:53;19.00;82.70
60313;DHT22;46158;52.850;6.970;2022-09-12T03:41:19;19.00;82.70
60313;DHT22;46158;52.850;6.970;2022-09-12T03:43:45;19.00;82.70
60313;DHT22;46158;52.850;6.970;2022-09-12T03:46:12;19.00;82.70
60313;DHT22;46158;52.850;6.970;2022-09-12T03:48:38;19.00;83.40
60313;DHT22;46158;52.850;6.970;2022-09-12T03:51:06;19.00;82.70
60313;DHT22;46158;52.850;6.970;2022-09-12T03:53:32;19.00;82.70
60313;DHT22;46158;52.850;6.970;2022-09-12T03:55:59;19.00;82.70
60313;DHT22;46158;52.850;6.970;2022-09-12T03:58:29;19.00;82.70
60313;DHT22;46158;52.850;6.970;2022-09-12T04:00:55;19.00;83.40
60313;DHT22;46158;52.850;6.970;2022-09-12T04:03:21;18.90;82.70
60313;DHT22;46158;52.850;6.970;2022-09-12T04:05:47;18.90;82.70
60313;DHT22;46158;52.850;6.970;2022-09-12T04:08:13;19.00;82.70
60313;DHT22;46158;52.850;6.970;2022-09-12T04:10:39;19.00;82.70
60313;DHT22;46158;52.850;6.970;2022-09-12T04:13:05;18.90;82.70
60313;DHT22;46158;52.850;6.970;2022-09-12T04:15:30;18.90;82.70
60313;DHT22;46158;52.850;6.970;2022-09-12T04:17:56;18.90;82.70
60313;DHT22;46158;52.850;6.970;2022-09-12T04:20:22;18.90;82.70
60313;DHT22;46158;52.850;6.970;2022-09-12T04:22:48;18.90;82.70
60313;DHT22;46158;52.850;6.970;2022-09-12T04:25:13;18.90;82.70
60313;DHT22;46158;52.850;6.970;2022-09-12T04:27:39;18.90;82.80
60313;DHT22;46158;52.850;6.970;2022-09-12T04:30:06;18.90;82.80
60313;DHT22;46158;52.850;6.970;2022-09-12T04:32:33;18.90;82.70
60313;DHT22;46158;52.850;6.970;2022-09-12T04:34:59;18.90;82.70
60313;DHT22;46158;52.850;6.970;2022-09-12T04:37:25;18.90;82.70
60313;DHT22;46158;52.850;6.970;2022-09-12T04:39:51;18.80;82.80
60313;DHT22;46158;52.850;6.970;2022-09-12T04:42:20;18.90;83.00
60313;DHT22;46158;52.850;6.970;2022-09-12T04:44:47;18.90;82.90
60313;DHT22;46158;52.850;6.970;2022-09-12T04:47:13;18.90;82.90
60313;DHT22;46158;52.850;6.970;2022-09-12T04:49:38;18.80;82.80
60313;DHT22;46158;52.850;6.970;2022-09-12T04:52:04;18.80;82.80
60313;DHT22;46158;52.850;6.970;2022-09-12T04:54:30;18.80;82.80
60313;DHT22;46158;52.850;6.970;2022-09-12T04:56:55;18.80;82.90
60313;DHT22;46158;52.850;6.970;2022-09-12T04:59:21;18.80;82.80
60313;DHT22;46158;52.850;6.970;2022-09-12T05:01:47;18.80;82.80
60313;DHT22;46158;52.850;6.970;2022-09-12T05:04:13;18.80;82.80
60313;DHT22;46158;52.850;6.970;2022-09-12T05:06:40;18.80;82.80
60313;DHT22;46158;52.850;6.970;2022-09-12T05:09:07;18.80;82.80
60313;DHT22;46158;52.850;6.970;2022-09-12T05:11:37;18.80;82.80
60313;DHT22;46158;52.850;6.970;2022-09-12T05:14:03;18.80;82.90
60313;DHT22;46158;52.850;6.970;2022-09-12T05:16:29;18.80;82.90
60313;DHT22;46158;52.850;6.970;2022-09-12T05:18:56;18.80;82.80
60313;DHT22;46158;52.850;6.970;2022-09-12T05:21:23;18.80;82.80
60313;DHT22;46158;52.850;6.970;2022-09-12T05:23:54;18.80;82.80
60313;DHT22;46158;52.850;6.970;2022-09-12T05:26:20;18.80;82.90
60313;DHT22;46158;52.850;6.970;2022-09-12T05:28:47;18.70;82.90
60313;DHT22;46158;52.850;6.970;2022-09-12T05:31:18;18.70;83.00
60313;DHT22;46158;52.850;6.970;2022-09-12T05:33:47;18.70;83.00
60313;DHT22;46158;52.850;6.970;2022-09-12T05:36:18;18.70;83.00
60313;DHT22;46158;52.850;6.970;2022-09-12T05:38:44;18.70;83.00
60313;DHT22;46158;52.850;6.970;2022-09-12T05:41:13;18.70;83.00
60313;DHT22;46158;52.850;6.970;2022-09-12T05:43:41;18.70;83.00
60313;DHT22;46158;52.850;6.970;2022-09-12T05:46:12;18.70;83.00
60313;DHT22;46158;52.850;6.970;2022-09-12T05:48:39;18.70;83.10
60313;DHT22;46158;52.850;6.970;2022-09-12T05:51:14;18.70;83.10
60313;DHT22;46158;52.850;6.970;2022-09-12T05:53:44;18.70;83.20
60313;DHT22;46158;52.850;6.970;2022-09-12T05:56:12;18.70;83.20
60313;DHT22;46158;52.850;6.970;2022-09-12T05:58:40;18.70;83.30
60313;DHT22;46158;52.850;6.970;2022-09-12T06:01:10;18.70;83.30
60313;DHT22;46158;52.850;6.970;2022-09-12T06:03:40;18.70;83.30
60313;DHT22;46158;52.850;6.970;2022-09-12T06:06:06;18.70;83.40
60313;DHT22;46158;52.850;6.970;2022-09-12T06:08:33;18.60;83.30
60313;DHT22;46158;52.850;6.970;2022-09-12T06:11:00;18.70;83.50
60313;DHT22;46158;52.850;6.970;2022-09-12T06:13:26;18.70;83.50
60313;DHT22;46158;52.850;6.970;2022-09-12T06:15:52;18.70;83.50
60313;DHT22;46158;52.850;6.970;2022-09-12T06:18:19;18.70;83.50
60313;DHT22;46158;52.850;6.970;2022-09-12T06:20:45;18.60;83.40
60313;DHT22;46158;52.850;6.970;2022-09-12T06:23:11;18.70;83.50
60313;DHT22;46158;52.850;6.970;2022-09-12T06:25:37;18.60;83.50
60313;DHT22;46158;52.850;6.970;2022-09-12T06:28:03;18.70;83.60
60313;DHT22;46158;52.850;6.970;2022-09-12T06:30:29;18.60;83.50
60313;DHT22;46158;52.850;6.970;2022-09-12T06:32:54;18.60;83.60
60313;DHT22;46158;52.850;6.970;2022-09-12T06:35:21;18.60;84.20
60313;DHT22;46158;52.850;6.970;2022-09-12T06:37:48;18.60;83.60
60313;DHT22;46158;52.850;6.970;2022-09-12T06:40:13;18.60;83.60
60313;DHT22;46158;52.850;6.970;2022-09-12T06:42:39;18.60;83.60
60313;DHT22;46158;52.850;6.970;2022-09-12T06:45:05;18.60;83.60
60313;DHT22;46158;52.850;6.970;2022-09-12T06:47:30;18.60;83.70
60313;DHT22;46158;52.850;6.970;2022-09-12T06:49:56;18.60;83.60
60313;DHT22;46158;52.850;6.970;2022-09-12T06:52:21;18.60;83.70
60313;DHT22;46158;52.850;6.970;2022-09-12T06:54:47;18.60;83.70
60313;DHT22;46158;52.850;6.970;2022-09-12T06:57:13;18.60;83.70
60313;DHT22;46158;52.850;6.970;2022-09-12T06:59:39;18.60;83.70
60313;DHT22;46158;52.850;6.970;2022-09-12T07:02:05;18.60;83.80
60313;DHT22;46158;52.850;6.970;2022-09-12T07:04:30;18.60;83.70
60313;DHT22;46158;52.850;6.970;2022-09-12T07:06:58;18.60;83.70
60313;DHT22;46158;52.850;6.970;2022-09-12T07:09:23;18.60;83.80
60313;DHT22;46158;52.850;6.970;2022-09-12T07:11:50;18.60;83.70
60313;DHT22;46158;52.850;6.970;2022-09-12T07:14:16;18.60;83.80
60313;DHT22;46158;52.850;6.970;2022-09-12T07:16:42;18.60;83.80
60313;DHT22;46158;52.850;6.970;2022-09-12T07:19:08;18.60;83.80
60313;DHT22;46158;52.850;6.970;2022-09-12T07:21:34;18.60;83.80
60313;DHT22;46158;52.850;6.970;2022-09-12T07:24:04;18.60;83.80
60313;DHT22;46158;52.850;6.970;2022-09-12T07:26:30;18.60;83.80
60313;DHT22;46158;52.850;6.970;2022-09-12T07:28:57;18.60;83.80
60313;DHT22;46158;52.850;6.970;2022-09-12T07:31:25;18.60;83.80
60313;DHT22;46158;52.850;6.970;2022-09-12T07:33:51;18.60;83.80
60313;DHT22;46158;52.850;6.970;2022-09-12T07:36:19;18.60;83.80
60313;DHT22;46158;52.850;6.970;2022-09-12T07:38:46;18.60;83.80
60313;DHT22;46158;52.850;6.970;2022-09-12T07:41:26;18.60;83.80
60313;DHT22;46158;52.850;6.970;2022-09-12T07:43:54;18.60;83.70
60313;DHT22;46158;52.850;6.970;2022-09-12T07:46:20;18.60;83.80
60313;DHT22;46158;52.850;6.970;2022-09-12T07:48:55;18.50;83.80
60313;DHT22;46158;52.850;6.970;2022-09-12T07:51:21;18.60;83.80
60313;DHT22;46158;52.850;6.970;2022-09-12T07:53:47;18.60;83.80
60313;DHT22;46158;52.850;6.970;2022-09-12T07:56:17;18.60;83.80
60313;DHT22;46158;52.850;6.970;2022-09-12T07:58:44;18.60;83.90
60313;DHT22;46158;52.850;6.970;2022-09-12T08:01:20;18.60;83.90
60313;DHT22;46158;52.850;6.970;2022-09-12T08:03:54;18.60;84.40
60313;DHT22;46158;52.850;6.970;2022-09-12T08:06:21;18.60;83.80
60313;DHT22;46158;52.850;6.970;2022-09-12T08:08:53;18.60;83.90
60313;DHT22;46158;52.850;6.970;2022-09-12T08:11:20;18.60;83.90
60313;DHT22;46158;52.850;6.970;2022-09-12T08:13:46;18.60;83.90
60313;DHT22;46158;52.850;6.970;2022-09-12T08:16:16;18.60;83.90
60313;DHT22;46158;52.850;6.970;2022-09-12T08:18:42;18.60;83.90
60313;DHT22;46158;52.850;6.970;2022-09-12T08:21:17;18.60;83.90
60313;DHT22;46158;52.850;6.970;2022-09-12T08:23:43;18.60;83.80
60313;DHT22;46158;52.850;6.970;2022-09-12T08:26:10;18.60;83.90
60313;DHT22;46158;52.850;6.970;2022-09-12T08:28:36;18.50;83.80
60313;DHT22;46158;52.850;6.970;2022-09-12T08:31:07;18.60;83.90
60313;DHT22;46158;52.850;6.970;2022-09-12T08:33:33;18.60;83.80
60313;DHT22;46158;52.850;6.970;2022-09-12T08:36:26;18.60;83.80
60313;DHT22;46158;52.850;6.970;2022-09-12T08:38:58;18.60;83.60
60313;DHT22;46158;52.850;6.970;2022-09-12T08:41:40;18.60;83.80
60313;DHT22;46158;52.850;6.970;2022-09-12T08:47:16;18.60;83.70
60313;DHT22;46158;52.850;6.970;2022-09-12T08:52:31;18.50;83.70
60313;DHT22;46158;52.850;6.970;2022-09-12T08:54:57;18.60;83.70
60313;DHT22;46158;52.850;6.970;2022-09-12T08:57:24;18.60;83.70
60313;DHT22;46158;52.850;6.970;2022-09-12T08:59:50;18.60;83.70
60313;DHT22;46158;52.850;6.970;2022-09-12T09:02:44;18.60;83.70
60313;DHT22;46158;52.850;6.970;2022-09-12T09:05:17;18.60;83.60
60313;DHT22;46158;52.850;6.970;2022-09-12T09:10:54;18.60;83.60
60313;DHT22;46158;52.850;6.970;2022-09-12T09:16:48;18.60;83.60
60313;DHT22;46158;52.850;6.970;2022-09-12T09:19:27;18.60;83.70
60313;DHT22;46158;52.850;6.970;2022-09-12T09:22:08;18.60;83.60
60313;DHT22;46158;52.850;6.970;2022-09-12T09:24:50;18.60;83.70
60313;DHT22;46158;52.850;6.970;2022-09-12T09:27:28;18.60;83.60
60313;DHT22;46158;52.850;6.970;2022-09-12T09:29:57;18.60;83.70
60313;DHT22;46158;52.850;6.970;2022-09-12T09:32:30;18.60;83.70
60313;DHT22;46158;52.850;6.970;2022-09-12T09:34:57;18.60;83.70
60313;DHT22;46158;52.850;6.970;2022-09-12T09:37:40;18.60;83.70
60313;DHT22;46158;52.850;6.970;2022-09-12T09:40:44;18.70;83.60
60313;DHT22;46158;52.850;6.970;2022-09-12T09:43:22;18.60;83.50
60313;DHT22;46158;52.850;6.970;2022-09-12T09:45:50;18.70;83.70
60313;DHT22;46158;52.850;6.970;2022-09-12T09:50:42;18.60;83.70
60313;DHT22;46158;52.850;6.970;2022-09-12T09:56:00;18.70;83.70
60313;DHT22;46158;52.850;6.970;2022-09-12T09:58:32;18.60;83.70
60313;DHT22;46158;52.850;6.970;2022-09-12T10:01:01;18.60;83.70
60313;DHT22;46158;52.850;6.970;2022-09-12T10:03:37;18.70;83.80
60313;DHT22;46158;52.850;6.970;2022-09-12T10:06:24;18.60;84.40
60313;DHT22;46158;52.850;6.970;2022-09-12T10:08:51;18.70;83.60
60313;DHT22;46158;52.850;6.970;2022-09-12T10:11:27;18.70;83.70
60313;DHT22;46158;52.850;6.970;2022-09-12T10:13:55;18.70;83.70
60313;DHT22;46158;52.850;6.970;2022-09-12T10:18:49;18.70;83.60
60313;DHT22;46158;52.850;6.970;2022-09-12T10:21:35;18.80;83.70
60313;DHT22;46158;52.850;6.970;2022-09-12T10:24:15;18.80;83.50
60313;DHT22;46158;52.850;6.970;2022-09-12T10:29:27;18.80;83.60
60313;DHT22;46158;52.850;6.970;2022-09-12T10:31:57;18.80;83.50
60313;DHT22;46158;52.850;6.970;2022-09-12T10:34:28;18.80;83.60
60313;DHT22;46158;52.850;6.970;2022-09-12T10:37:05;18.90;83.50
60313;DHT22;46158;52.850;6.970;2022-09-12T10:39:32;18.90;83.50
60313;DHT22;46158;52.850;6.970;2022-09-12T10:42:01;18.80;83.50
60313;DHT22;46158;52.850;6.970;2022-09-12T10:44:30;18.90;83.50
60313;DHT22;46158;52.850;6.970;2022-09-12T10:46:58;18.90;83.50
60313;DHT22;46158;52.850;6.970;2022-09-12T10:49:31;18.90;83.50
60313;DHT22;46158;52.850;6.970;2022-09-12T10:52:23;18.90;83.40
60313;DHT22;46158;52.850;6.970;2022-09-12T10:54:52;18.90;83.30
60313;DHT22;46158;52.850;6.970;2022-09-12T11:00:15;18.90;83.50
60313;DHT22;46158;52.850;6.970;2022-09-12T11:05:59;18.90;83.30
60313;DHT22;46158;52.850;6.970;2022-09-12T11:08:52;18.90;83.40
60313;DHT22;46158;52.850;6.970;2022-09-12T11:17:10;19.00;83.30
60313;DHT22;46158;52.850;6.970;2022-09-12T11:28:41;19.10;83.30
60313;DHT22;46158;52.850;6.970;2022-09-12T11:34:01;19.00;83.20
60313;DHT22;46158;52.850;6.970;2022-09-12T11:39:11;19.10;83.30
60313;DHT22;46158;52.850;6.970;2022-09-12T11:41:44;19.10;83.20
60313;DHT22;46158;52.850;6.970;2022-09-12T11:44:22;19.10;83.20
60313;DHT22;46158;52.850;6.970;2022-09-12T11:46:49;19.10;83.20
60313;DHT22;46158;52.850;6.970;2022-09-12T11:49:35;19.10;83.20
60313;DHT22;46158;52.850;6.970;2022-09-12T11:52:23;19.10;83.10
60313;DHT22;46158;52.850;6.970;2022-09-12T11:54:56;19.10;83.10
60313;DHT22;46158;52.850;6.970;2022-09-12T11:57:43;19.10;83.20
60313;DHT22;46158;52.850;6.970;2022-09-12T12:00:22;19.10;83.20
60313;DHT22;46158;52.850;6.970;2022-09-12T12:05:23;19.10;83.20
60313;DHT22;46158;52.850;6.970;2022-09-12T12:07:56;19.10;83.20
60313;DHT22;46158;52.850;6.970;2022-09-12T12:10:25;19.10;83.10
60313;DHT22;46158;52.850;6.970;2022-09-12T12:12:53;19.20;83.20
60313;DHT22;46158;52.850;6.970;2022-09-12T12:15:20;19.10;83.10
60313;DHT22;46158;52.850;6.970;2022-09-12T12:18:03;19.20;83.10
60313;DHT22;46158;52.850;6.970;2022-09-12T12:20:30;19.10;83.00
60313;DHT22;46158;52.850;6.970;2022-09-12T12:22:56;19.20;83.10
60313;DHT22;46158;52.850;6.970;2022-09-12T12:25:25;19.20;83.00
60313;DHT22;46158;52.850;6.970;2022-09-12T12:28:02;19.20;83.00
60313;DHT22;46158;52.850;6.970;2022-09-12T12:38:37;19.20;82.80
60313;DHT22;46158;52.850;6.970;2022-09-12T12:43:44;19.30;82.70
60313;DHT22;46158;52.850;6.970;2022-09-12T12:46:14;19.30;82.80
60313;DHT22;46158;52.850;6.970;2022-09-12T12:51:34;19.30;83.40
60313;DHT22;46158;52.850;6.970;2022-09-12T12:54:03;19.30;82.70
60313;DHT22;46158;52.850;6.970;2022-09-12T12:56:40;19.30;82.70
60313;DHT22;46158;52.850;6.970;2022-09-12T12:59:32;19.30;82.60
60313;DHT22;46158;52.850;6.970;2022-09-12T13:01:58;19.30;82.50
60313;DHT22;46158;52.850;6.970;2022-09-12T13:04:27;19.30;82.70
60313;DHT22;46158;52.850;6.970;2022-09-12T13:07:05;19.30;82.70
60313;DHT22;46158;52.850;6.970;2022-09-12T13:09:42;19.30;82.60
60313;DHT22;46158;52.850;6.970;2022-09-12T13:12:17;19.30;82.60
60313;DHT22;46158;52.850;6.970;2022-09-12T13:14:49;19.40;82.60
60313;DHT22;46158;52.850;6.970;2022-09-12T13:17:38;19.40;82.60
60313;DHT22;46158;52.850;6.970;2022-09-12T13:20:23;19.40;82.50
60313;DHT22;46158;52.850;6.970;2022-09-12T13:22:51;19.40;82.50
60313;DHT22;46158;52.850;6.970;2022-09-12T13:25:19;19.40;82.60
60313;DHT22;46158;52.850;6.970;2022-09-12T13:28:02;19.40;82.60
60313;DHT22;46158;52.850;6.970;2022-09-12T13:30:32;19.40;82.50
60313;DHT22;46158;52.850;6.970;2022-09-12T13:33:05;19.40;82.50
60313;DHT22;46158;52.850;6.970;2022-09-12T13:38:39;19.50;82.50
60313;DHT22;46158;52.850;6.970;2022-09-12T13:44:14;19.40;82.40
60313;DHT22;46158;52.850;6.970;2022-09-12T13:46:41;19.40;82.50
60313;DHT22;46158;52.850;6.970;2022-09-12T13:52:02;19.40;82.30
60313;DHT22;46158;52.850;6.970;2022-09-12T13:54:29;19.50;82.50
60313;DHT22;46158;52.850;6.970;2022-09-12T13:56:56;19.50;82.50
60313;DHT22;46158;52.850;6.970;2022-09-12T13:59:22;19.50;82.40
60313;DHT22;46158;52.850;6.970;2022-09-12T14:01:48;19.50;82.40
60313;DHT22;46158;52.850;6.970;2022-09-12T14:04:20;19.50;82.40
60313;DHT22;46158;52.850;6.970;2022-09-12T14:07:14;19.50;82.40
60313;DHT22;46158;52.850;6.970;2022-09-12T14:09:44;19.50;82.40
60313;DHT22;46158;52.850;6.970;2022-09-12T14:12:18;19.50;82.40
60313;DHT22;46158;52.850;6.970;2022-09-12T14:14:49;19.50;82.40
60313;DHT22;46158;52.850;6.970;2022-09-12T14:17:31;19.50;82.40
60313;DHT22;46158;52.850;6.970;2022-09-12T14:19:59;19.50;82.40
60313;DHT22;46158;52.850;6.970;2022-09-12T14:22:28;19.60;82.50
60313;DHT22;46158;52.850;6.970;2022-09-12T14:24:55;19.60;82.40
60313;DHT22;46158;52.850;6.970;2022-09-12T14:27:24;19.60;82.40
60313;DHT22;46158;52.850;6.970;2022-09-12T14:30:05;19.60;82.40
60313;DHT22;46158;52.850;6.970;2022-09-12T14:32:33;19.60;82.40
60313;DHT22;46158;52.850;6.970;2022-09-12T14:37:35;19.60;82.40
60313;DHT22;46158;52.850;6.970;2022-09-12T14:40:01;19.60;82.40
60313;DHT22;46158;52.850;6.970;2022-09-12T14:42:30;19.60;82.40
60313;DHT22;46158;52.850;6.970;2022-09-12T14:45:00;19.60;82.40
60313;DHT22;46158;52.850;6.970;2022-09-12T14:47:27;19.60;82.40
60313;DHT22;46158;52.850;6.970;2022-09-12T14:49:57;19.60;82.40
60313;DHT22;46158;52.850;6.970;2022-09-12T14:55:40;19.60;82.50
60313;DHT22;46158;52.850;6.970;2022-09-12T14:57:41;19.60;82.40
60313;DHT22;46158;52.850;6.970;2022-09-12T15:02:47;19.60;82.40
60313;DHT22;46158;52.850;6.970;2022-09-12T15:05:16;19.60;82.40
60313;DHT22;46158;52.850;6.970;2022-09-12T15:07:53;19.70;82.50
60313;DHT22;46158;52.850;6.970;2022-09-12T15:10:34;19.60;82.30
60313;DHT22;46158;52.850;6.970;2022-09-12T15:15:30;19.60;82.30
60313;DHT22;46158;52.850;6.970;2022-09-12T15:17:55;19.60;82.30
60313;DHT22;46158;52.850;6.970;2022-09-12T15:20:21;19.70;82.30
60313;DHT22;46158;52.850;6.970;2022-09-12T15:22:48;19.70;82.20
60313;DHT22;46158;52.850;6.970;2022-09-12T15:25:14;19.70;82.30
60313;DHT22;46158;52.850;6.970;2022-09-12T15:27:40;19.70;82.20
60313;DHT22;46158;52.850;6.970;2022-09-12T15:30:10;19.70;82.20
60313;DHT22;46158;52.850;6.970;2022-09-12T15:32:41;19.70;82.30
60313;DHT22;46158;52.850;6.970;2022-09-12T15:35:18;19.80;82.40
60313;DHT22;46158;52.850;6.970;2022-09-12T15:37:45;19.70;82.40
60313;DHT22;46158;52.850;6.970;2022-09-12T15:40:11;19.70;82.80
60313;DHT22;46158;52.850;6.970;2022-09-12T15:42:37;19.70;82.90
60313;DHT22;46158;52.850;6.970;2022-09-12T15:45:22;19.70;83.00
60313;DHT22;46158;52.850;6.970;2022-09-12T15:47:49;19.70;82.90
60313;DHT22;46158;52.850;6.970;2022-09-12T15:50:15;19.70;83.20
60313;DHT22;46158;52.850;6.970;2022-09-12T15:52:41;19.70;83.40
60313;DHT22;46158;52.850;6.970;2022-09-12T15:55:22;19.70;83.50
60313;DHT22;46158;52.850;6.970;2022-09-12T15:57:48;19.70;83.50
60313;DHT22;46158;52.850;6.970;2022-09-12T16:00:15;19.70;83.80
60313;DHT22;46158;52.850;6.970;2022-09-12T16:02:42;19.70;83.90
60313;DHT22;46158;52.850;6.970;2022-09-12T16:05:14;19.70;83.90
60313;DHT22;46158;52.850;6.970;2022-09-12T16:07:41;19.70;83.90
60313;DHT22;46158;52.850;6.970;2022-09-12T16:10:08;19.70;84.40
60313;DHT22;46158;52.850;6.970;2022-09-12T16:12:35;19.70;84.00
60313;DHT22;46158;52.850;6.970;2022-09-12T16:15:00;19.70;84.10
60313;DHT22;46158;52.850;6.970;2022-09-12T16:17:26;19.80;84.20
60313;DHT22;46158;52.850;6.970;2022-09-12T16:19:52;19.80;84.20
60313;DHT22;46158;52.850;6.970;2022-09-12T16:22:18;19.80;84.20
60313;DHT22;46158;52.850;6.970;2022-09-12T16:24:43;19.80;84.90
60313;DHT22;46158;52.850;6.970;2022-09-12T16:27:09;19.80;84.30
60313;DHT22;46158;52.850;6.970;2022-09-12T16:29:35;19.80;84.40
60313;DHT22;46158;52.850;6.970;2022-09-12T16:32:00;19.80;84.20
60313;DHT22;46158;52.850;6.970;2022-09-12T16:34:26;19.80;84.20
60313;DHT22;46158;52.850;6.970;2022-09-12T16:36:52;19.80;84.00
60313;DHT22;46158;52.850;6.970;2022-09-12T16:39:17;19.80;83.90
60313;DHT22;46158;52.850;6.970;2022-09-12T16:41:43;19.80;83.90
60313;DHT22;46158;52.850;6.970;2022-09-12T16:44:08;19.80;83.90
60313;DHT22;46158;52.850;6.970;2022-09-12T16:46:34;19.80;83.70
60313;DHT22;46158;52.850;6.970;2022-09-12T16:49:00;19.80;83.70
60313;DHT22;46158;52.850;6.970;2022-09-12T16:51:28;19.80;83.70
60313;DHT22;46158;52.850;6.970;2022-09-12T16:53:54;19.80;83.70
60313;DHT22;46158;52.850;6.970;2022-09-12T16:56:20;19.80;83.60
60313;DHT22;46158;52.850;6.970;2022-09-12T16:58:46;19.80;83.50
60313;DHT22;46158;52.850;6.970;2022-09-12T17:01:15;19.80;83.50
60313;DHT22;46158;52.850;6.970;2022-09-12T17:03:41;19.80;83.50
60313;DHT22;46158;52.850;6.970;2022-09-12T17:06:12;19.80;83.40
60313;DHT22;46158;52.850;6.970;2022-09-12T17:08:40;19.80;83.40
60313;DHT22;46158;52.850;6.970;2022-09-12T17:11:19;19.80;83.40
60313;DHT22;46158;52.850;6.970;2022-09-12T17:13:52;19.80;83.30
60313;DHT22;46158;52.850;6.970;2022-09-12T17:16:19;19.80;83.20
60313;DHT22;46158;52.850;6.970;2022-09-12T17:18:45;19.80;83.20
60313;DHT22;46158;52.850;6.970;2022-09-12T17:21:11;19.80;83.90
60313;DHT22;46158;52.850;6.970;2022-09-12T17:23:38;19.80;83.80
60313;DHT22;46158;52.850;6.970;2022-09-12T17:26:04;19.80;83.00
60313;DHT22;46158;52.850;6.970;2022-09-12T17:28:31;19.80;83.00
60313;DHT22;46158;52.850;6.970;2022-09-12T17:31:05;19.80;82.90
60313;DHT22;46158;52.850;6.970;2022-09-12T17:33:31;19.80;82.90
60313;DHT22;46158;52.850;6.970;2022-09-12T17:36:11;19.80;82.80
60313;DHT22;46158;52.850;6.970;2022-09-12T17:38:39;19.80;82.70
60313;DHT22;46158;52.850;6.970;2022-09-12T17:43:40;19.80;82.90
60313;DHT22;46158;52.850;6.970;2022-09-12T17:46:06;19.70;82.70
60313;DHT22;46158;52.850;6.970;2022-09-12T17:48:33;19.70;82.70
60313;DHT22;46158;52.850;6.970;2022-09-12T17:51:09;19.70;82.60
60313;DHT22;46158;52.850;6.970;2022-09-12T17:53:35;19.80;82.60
60313;DHT22;46158;52.850;6.970;2022-09-12T17:56:05;19.70;82.50
60313;DHT22;46158;52.850;6.970;2022-09-12T17:58:32;19.70;82.60